createdAt,value
2024-04-30T00:01:32.310Z,3.70
2024-04-30T00:04:01.482Z,3.50
2024-04-30T00:06:35.298Z,4.22
2024-04-30T00:09:04.735Z,4.00
2024-04-30T00:11:48.143Z,3.90
2024-04-30T00:14:18.154Z,3.92
2024-04-30T00:16:49.999Z,4.18
2024-04-30T00:19:18.708Z,3.97
2024-04-30T00:21:50.568Z,4.05
2024-04-30T00:24:19.090Z,3.13
2024-04-30T00:26:50.611Z,3.65
2024-04-30T00:29:19.075Z,3.67
2024-04-30T00:31:51.598Z,3.30
2024-04-30T00:34:20.080Z,3.20
2024-04-30T00:36:51.559Z,3.28
2024-04-30T00:39:21.663Z,2.95
2024-04-30T00:41:55.671Z,3.05
2024-04-30T00:44:26.025Z,3.30
2024-04-30T00:46:58.900Z,3.60
2024-04-30T00:49:27.622Z,2.90
2024-04-30T00:52:00.361Z,3.38
2024-04-30T00:54:29.500Z,2.80
2024-04-30T00:57:01.355Z,3.38
2024-04-30T00:59:30.116Z,2.45
2024-04-30T01:02:02.191Z,3.10
2024-04-30T01:04:34.262Z,3.47
2024-04-30T01:07:07.932Z,3.70
2024-04-30T01:09:37.209Z,3.65
2024-04-30T01:12:09.057Z,3.95
2024-04-30T01:14:37.423Z,3.08
2024-04-30T01:17:09.217Z,3.40
2024-04-30T01:19:38.848Z,4.78
2024-04-30T01:22:11.339Z,3.70
2024-04-30T01:24:40.289Z,3.30
2024-04-30T01:29:40.409Z,3.92
2024-04-30T01:32:12.644Z,3.20
2024-04-30T01:34:41.802Z,3.10
2024-04-30T01:37:13.463Z,3.05
2024-04-30T01:39:42.276Z,3.60
2024-04-30T01:42:13.914Z,3.05
2024-04-30T01:44:42.874Z,3.05
2024-04-30T01:47:14.567Z,3.50
2024-04-30T01:49:44.360Z,3.15
2024-04-30T01:52:16.263Z,3.22
2024-04-30T01:54:44.697Z,3.60
2024-04-30T01:57:18.396Z,3.83
2024-04-30T01:59:46.659Z,3.58
2024-04-30T02:02:18.556Z,3.50
2024-04-30T02:04:52.867Z,3.75
2024-04-30T02:07:25.407Z,3.00
2024-04-30T02:09:54.140Z,4.57
2024-04-30T02:12:25.861Z,3.95
2024-04-30T02:14:54.326Z,4.10
2024-04-30T02:17:27.989Z,3.80
2024-04-30T02:19:56.712Z,3.30
2024-04-30T02:25:01.832Z,3.25
2024-04-30T02:27:34.546Z,3.88
2024-04-30T02:30:03.012Z,3.85
2024-04-30T02:32:50.804Z,3.28
2024-04-30T02:35:22.068Z,5.05
2024-04-30T02:37:53.526Z,3.85
2024-04-30T02:40:24.582Z,3.50
2024-04-30T02:42:55.656Z,3.97
2024-04-30T02:45:26.699Z,3.92
2024-04-30T02:47:55.775Z,3.08
2024-04-30T02:50:26.869Z,3.38
2024-04-30T02:52:55.633Z,4.63
2024-04-30T02:55:26.780Z,4.25
2024-04-30T02:57:55.580Z,4.20
2024-04-30T03:00:27.057Z,3.50
2024-04-30T03:02:56.143Z,4.22
2024-04-30T03:05:27.327Z,3.50
2024-04-30T03:07:56.110Z,4.03
2024-04-30T03:10:27.084Z,3.38
2024-04-30T03:12:57.041Z,3.63
2024-04-30T03:17:56.537Z,3.28
2024-04-30T03:20:28.601Z,3.92
2024-04-30T03:22:57.960Z,3.47
2024-04-30T03:25:28.974Z,3.58
2024-04-30T03:28:01.386Z,3.13
2024-04-30T03:30:34.009Z,3.72
2024-04-30T03:33:05.476Z,3.70
2024-04-30T03:35:37.062Z,3.28
2024-04-30T03:38:09.163Z,3.40
2024-04-30T03:40:40.944Z,2.90
2024-04-30T03:43:13.287Z,2.70
2024-04-30T03:45:44.498Z,3.38
2024-04-30T03:48:16.732Z,3.58
2024-04-30T03:50:51.698Z,4.22
2024-04-30T03:53:20.586Z,3.63
2024-04-30T03:55:53.642Z,3.22
2024-04-30T03:58:23.162Z,3.55
2024-04-30T04:00:54.939Z,3.72
2024-04-30T04:03:24.015Z,3.45
2024-04-30T04:05:55.136Z,3.58
2024-04-30T04:08:23.928Z,3.50
2024-04-30T04:11:07.163Z,3.97
2024-04-30T04:13:58.689Z,3.60
2024-04-30T04:16:29.690Z,3.55
2024-04-30T04:19:01.206Z,3.20
2024-04-30T04:21:32.517Z,3.55
2024-04-30T04:24:04.078Z,3.90
2024-04-30T04:26:32.521Z,3.67
2024-04-30T04:29:03.946Z,3.40
2024-04-30T04:31:32.626Z,3.67
2024-04-30T04:34:04.885Z,3.60
2024-04-30T04:36:33.208Z,3.92
2024-04-30T04:39:04.939Z,4.03
2024-04-30T04:41:33.326Z,3.90
2024-04-30T04:44:04.817Z,3.40
2024-04-30T04:46:33.245Z,3.70
2024-04-30T04:49:07.897Z,3.08
2024-04-30T04:51:36.573Z,3.17
2024-04-30T04:54:08.296Z,3.60
2024-04-30T04:56:36.769Z,3.13
2024-04-30T04:59:08.240Z,4.00
2024-04-30T05:01:36.650Z,3.25
2024-04-30T05:04:08.719Z,3.40
2024-04-30T05:06:41.717Z,3.92
2024-04-30T05:09:13.244Z,3.63
2024-04-30T05:11:41.615Z,3.80
2024-04-30T05:14:13.322Z,3.60
2024-04-30T05:16:41.791Z,4.13
2024-04-30T05:21:41.782Z,3.17
2024-04-30T05:24:13.184Z,3.63
2024-04-30T05:26:42.010Z,3.92
2024-04-30T05:29:13.560Z,3.92
2024-04-30T05:31:42.154Z,4.00
2024-04-30T05:36:41.845Z,4.05
2024-04-30T05:41:41.343Z,3.90
2024-04-30T05:44:12.961Z,3.92
2024-04-30T05:46:41.447Z,4.28
2024-04-30T05:49:13.281Z,4.45
2024-04-30T05:51:43.132Z,5.18
2024-04-30T05:54:14.967Z,4.15
2024-04-30T05:56:43.365Z,4.38
2024-04-30T05:59:14.755Z,4.65
2024-04-30T06:01:43.100Z,3.90
2024-04-30T06:06:42.913Z,4.07
2024-04-30T06:09:14.527Z,3.90
2024-04-30T06:11:43.214Z,4.30
2024-04-30T06:14:14.765Z,4.25
2024-04-30T06:16:43.103Z,4.20
2024-04-30T06:19:14.933Z,4.07
2024-04-30T06:21:45.257Z,4.35
2024-04-30T06:24:16.971Z,3.97
2024-04-30T06:26:45.558Z,4.38
2024-04-30T06:29:17.501Z,4.75
2024-04-30T06:31:45.914Z,5.00
2024-04-30T06:34:17.572Z,4.90
2024-04-30T06:36:45.994Z,5.20
2024-04-30T06:39:18.811Z,4.40
2024-04-30T06:41:47.193Z,5.30
2024-04-30T06:44:18.637Z,4.57
2024-04-30T06:46:47.092Z,5.35
2024-04-30T06:49:18.699Z,6.55
2024-04-30T06:51:47.045Z,6.68
2024-04-30T06:54:18.598Z,7.10
2024-04-30T06:56:47.030Z,7.40
2024-04-30T06:59:18.949Z,7.53
2024-04-30T07:01:47.310Z,9.27
2024-04-30T07:04:19.131Z,9.38
2024-04-30T07:06:47.611Z,10.00
2024-04-30T07:09:19.619Z,9.43
2024-04-30T07:11:48.954Z,10.65
2024-04-30T07:14:21.807Z,9.15
2024-04-30T07:16:56.806Z,7.65
2024-04-30T07:19:34.683Z,6.85
2024-04-30T07:22:03.605Z,5.70
2024-04-30T07:24:35.423Z,6.15
2024-04-30T07:27:04.086Z,6.88
2024-04-30T07:29:35.906Z,6.82
2024-04-30T07:32:05.004Z,5.47
2024-04-30T07:34:36.973Z,5.80
2024-04-30T07:37:07.505Z,5.13
2024-04-30T07:39:39.151Z,5.32
2024-04-30T07:42:09.451Z,5.35
2024-04-30T07:44:41.434Z,5.78
2024-04-30T07:47:13.031Z,5.55
2024-04-30T07:49:44.616Z,5.68
2024-04-30T07:52:15.079Z,5.32
2024-04-30T07:54:47.904Z,5.38
2024-04-30T07:57:16.981Z,5.15
2024-04-30T07:59:52.288Z,5.13
2024-04-30T08:02:20.739Z,5.82
2024-04-30T08:04:52.500Z,4.97
2024-04-30T08:07:21.022Z,4.88
2024-04-30T08:09:52.598Z,4.97
2024-04-30T08:12:25.631Z,5.25
2024-04-30T08:15:04.492Z,5.03
2024-04-30T08:17:34.620Z,4.97
2024-04-30T08:20:06.907Z,4.50
2024-04-30T08:22:35.531Z,5.07
2024-04-30T08:25:07.279Z,4.85
2024-04-30T08:27:35.699Z,5.18
2024-04-30T08:30:08.275Z,4.97
2024-04-30T08:32:36.908Z,5.03
2024-04-30T08:35:08.821Z,5.22
2024-04-30T08:37:43.389Z,4.75
2024-04-30T08:40:19.587Z,5.18
2024-04-30T08:42:50.648Z,5.13
2024-04-30T08:45:22.988Z,5.22
2024-04-30T08:47:52.903Z,5.07
2024-04-30T08:50:27.517Z,5.28
2024-04-30T08:52:58.151Z,5.20
2024-04-30T08:55:31.206Z,5.65
2024-04-30T08:57:59.890Z,5.63
2024-04-30T09:00:32.284Z,5.80
2024-04-30T09:03:04.996Z,5.38
2024-04-30T09:05:37.177Z,6.03
2024-04-30T09:08:06.215Z,5.97
2024-04-30T09:10:38.547Z,5.20
2024-04-30T09:13:07.255Z,6.07
2024-04-30T09:15:38.840Z,5.18
2024-04-30T09:18:11.164Z,5.40
2024-04-30T09:20:52.107Z,6.00
2024-04-30T09:23:50.008Z,5.50
2024-04-30T09:26:19.479Z,5.80
2024-04-30T09:28:59.949Z,5.15
2024-04-30T09:31:40.131Z,5.68
2024-04-30T09:34:11.910Z,5.25
2024-04-30T09:36:41.074Z,5.88
2024-04-30T09:39:14.224Z,5.90
2024-04-30T09:41:46.066Z,6.00
2024-04-30T09:44:17.998Z,5.82
2024-04-30T09:46:52.210Z,5.70
2024-04-30T09:49:24.669Z,6.35
2024-04-30T09:51:56.861Z,5.85
2024-04-30T09:54:29.783Z,5.30
2024-04-30T09:57:02.636Z,6.60
2024-04-30T09:59:34.064Z,5.75
2024-04-30T10:02:09.554Z,5.97
2024-04-30T10:04:41.651Z,6.32
2024-04-30T10:07:11.782Z,6.38
2024-04-30T10:09:42.728Z,5.50
2024-04-30T10:12:28.808Z,6.05
2024-04-30T10:15:15.104Z,6.38
2024-04-30T10:17:44.551Z,5.90
2024-04-30T10:20:18.574Z,6.30
2024-04-30T10:22:47.434Z,6.28
2024-04-30T10:25:26.377Z,6.35
2024-04-30T10:28:09.693Z,6.30
2024-04-30T10:30:40.846Z,6.03
2024-04-30T10:33:09.830Z,6.03
2024-04-30T10:35:47.518Z,6.65
2024-04-30T10:38:16.445Z,6.28
2024-04-30T10:40:47.587Z,6.65
2024-04-30T10:43:28.294Z,6.60
2024-04-30T10:45:56.769Z,7.15
2024-04-30T10:48:28.490Z,6.38
2024-04-30T10:51:02.911Z,6.47
2024-04-30T10:53:34.707Z,7.47
2024-04-30T10:56:03.252Z,7.63
2024-04-30T10:58:34.940Z,6.40
2024-04-30T11:01:03.396Z,6.65
2024-04-30T11:03:35.228Z,6.85
2024-04-30T11:06:03.703Z,6.60
2024-04-30T11:08:35.448Z,6.88
2024-04-30T11:11:20.509Z,7.57
2024-04-30T11:13:51.762Z,7.35
2024-04-30T11:16:22.999Z,7.00
2024-04-30T11:18:52.002Z,7.60
2024-04-30T11:21:26.301Z,7.32
2024-04-30T11:26:25.967Z,6.85
2024-04-30T11:29:08.980Z,8.15
2024-04-30T11:31:46.817Z,7.88
2024-04-30T11:34:15.969Z,8.30
2024-04-30T11:36:47.399Z,7.78
2024-04-30T11:39:17.141Z,7.68
2024-04-30T11:41:52.349Z,7.47
2024-04-30T11:44:30.800Z,7.75
2024-04-30T11:47:05.892Z,7.85
2024-04-30T11:49:38.621Z,8.52
2024-04-30T11:52:07.201Z,7.95
2024-04-30T11:54:39.189Z,7.78
2024-04-30T11:57:07.646Z,7.47
2024-04-30T11:59:41.884Z,8.48
2024-04-30T12:02:10.577Z,8.40
2024-04-30T12:04:42.418Z,7.93
2024-04-30T12:07:10.889Z,7.45
2024-04-30T12:09:45.181Z,8.25
2024-04-30T12:12:13.640Z,8.45
2024-04-30T12:14:45.062Z,8.05
2024-04-30T12:17:13.578Z,6.82
2024-04-30T12:19:45.510Z,7.43
2024-04-30T12:22:13.978Z,7.47
2024-04-30T12:24:45.587Z,7.30
2024-04-30T12:27:14.196Z,7.38
2024-04-30T12:29:45.854Z,7.45
2024-04-30T12:32:14.346Z,8.25
2024-04-30T12:34:46.434Z,7.03
2024-04-30T12:37:14.882Z,7.53
2024-04-30T12:39:46.753Z,7.32
2024-04-30T12:42:15.421Z,6.78
2024-04-30T12:44:50.917Z,6.60
2024-04-30T12:47:19.580Z,6.53
2024-04-30T12:49:51.187Z,6.90
2024-04-30T12:52:20.042Z,6.57
2024-04-30T12:54:51.692Z,7.10
2024-04-30T12:57:20.107Z,7.47
2024-04-30T12:59:51.579Z,7.50
2024-04-30T13:02:20.008Z,6.15
2024-04-30T13:04:52.033Z,6.55
2024-04-30T13:07:20.658Z,5.55
2024-04-30T13:09:52.220Z,5.82
2024-04-30T13:12:20.941Z,5.70
2024-04-30T13:14:52.527Z,5.68
2024-04-30T13:17:20.889Z,4.97
2024-04-30T13:22:20.557Z,5.15
2024-04-30T13:24:52.064Z,4.65
2024-04-30T13:27:20.374Z,4.57
2024-04-30T13:29:51.919Z,5.30
2024-04-30T13:32:20.675Z,4.63
2024-04-30T13:34:52.558Z,4.80
2024-04-30T13:37:21.088Z,4.63
2024-04-30T13:39:52.687Z,4.75
2024-04-30T13:42:21.589Z,4.55
2024-04-30T13:44:53.276Z,5.30
2024-04-30T13:47:22.155Z,4.70
2024-04-30T13:49:53.741Z,4.97
2024-04-30T13:52:22.758Z,5.13
2024-04-30T13:57:22.743Z,5.20
2024-04-30T13:59:54.039Z,5.47
2024-04-30T14:02:23.092Z,5.03
2024-04-30T14:07:22.906Z,5.25
2024-04-30T14:09:54.235Z,5.28
2024-04-30T14:12:23.157Z,5.40
2024-04-30T14:14:54.478Z,4.80
2024-04-30T14:17:23.646Z,4.80
2024-04-30T14:19:55.098Z,5.05
2024-04-30T14:22:24.014Z,5.53
2024-04-30T14:24:55.178Z,5.07
2024-04-30T14:27:24.082Z,4.82
2024-04-30T14:29:55.348Z,4.88
2024-04-30T14:32:26.137Z,4.80
2024-04-30T14:34:57.445Z,4.72
2024-04-30T14:37:26.535Z,5.10
2024-04-30T14:42:29.593Z,4.70
2024-04-30T14:45:06.673Z,4.50
2024-04-30T14:47:37.015Z,4.75
2024-04-30T14:50:08.502Z,4.95
2024-04-30T14:52:38.327Z,4.30
2024-04-30T14:55:09.511Z,5.40
2024-04-30T14:57:38.457Z,4.78
2024-04-30T15:00:10.001Z,5.45
2024-04-30T15:02:38.883Z,5.55
2024-04-30T15:05:10.424Z,4.88
2024-04-30T15:07:39.473Z,4.47
2024-04-30T15:10:11.881Z,4.57
2024-04-30T15:12:40.741Z,4.68
2024-04-30T15:15:12.302Z,4.15
2024-04-30T15:17:41.356Z,4.43
2024-04-30T15:20:13.184Z,4.30
2024-04-30T15:22:42.160Z,5.10
2024-04-30T15:25:13.512Z,3.90
2024-04-30T15:27:42.374Z,4.88
2024-04-30T15:30:15.510Z,4.18
2024-04-30T15:32:46.094Z,4.28
2024-04-30T15:35:20.346Z,5.32
2024-04-30T15:37:50.096Z,4.65
2024-04-30T15:40:21.422Z,4.45
2024-04-30T15:42:50.400Z,4.57
2024-04-30T15:45:21.708Z,4.43
2024-04-30T15:47:50.820Z,4.63
2024-04-30T15:50:22.084Z,4.63
2024-04-30T15:52:51.162Z,4.25
2024-04-30T15:55:22.440Z,4.43
2024-04-30T15:57:51.719Z,4.45
2024-04-30T16:00:22.914Z,4.57
2024-04-30T16:02:52.082Z,5.10
2024-04-30T16:07:53.225Z,4.72
2024-04-30T16:10:24.595Z,4.72
2024-04-30T16:12:53.613Z,4.53
2024-04-30T16:17:53.950Z,4.40
2024-04-30T16:22:53.756Z,4.32
2024-04-30T16:25:24.878Z,4.57
2024-04-30T16:27:53.912Z,4.38
2024-04-30T16:30:25.093Z,4.65
2024-04-30T16:32:54.260Z,4.95
2024-04-30T16:35:25.810Z,4.75
2024-04-30T16:37:54.761Z,5.85
2024-04-30T16:40:25.795Z,5.47
2024-04-30T16:42:55.144Z,5.00
2024-04-30T16:45:26.628Z,4.63
2024-04-30T16:47:55.751Z,4.45
2024-04-30T16:50:26.938Z,5.13
2024-04-30T16:52:59.278Z,4.55
2024-04-30T16:55:31.446Z,4.82
2024-04-30T16:58:03.624Z,4.60
2024-04-30T17:00:35.187Z,5.60
2024-04-30T17:03:04.608Z,5.15
2024-04-30T17:05:35.818Z,5.13
2024-04-30T17:08:07.941Z,5.53
2024-04-30T17:10:36.344Z,5.05
2024-04-30T17:15:36.125Z,5.63
2024-04-30T17:18:08.572Z,6.25
2024-04-30T17:20:37.024Z,5.45
2024-04-30T17:25:36.734Z,6.15
2024-04-30T17:28:08.766Z,5.80
2024-04-30T17:30:37.232Z,5.97
2024-04-30T17:33:09.065Z,6.05
2024-04-30T17:35:37.581Z,5.65
2024-04-30T17:38:09.306Z,5.72
2024-04-30T17:40:37.749Z,6.60
2024-04-30T17:43:10.211Z,6.15
2024-04-30T17:45:38.855Z,7.20
2024-04-30T17:48:11.418Z,6.47
2024-04-30T17:50:39.928Z,7.75
2024-04-30T17:55:42.189Z,7.72
2024-04-30T17:58:11.613Z,8.40
2024-04-30T18:03:11.955Z,6.78
2024-04-30T18:05:43.130Z,7.32
2024-04-30T18:08:11.990Z,7.32
2024-04-30T18:10:49.530Z,8.50
2024-04-30T18:13:25.559Z,8.18
2024-04-30T18:15:54.347Z,9.38
2024-04-30T18:18:25.920Z,8.13
2024-04-30T18:20:54.757Z,7.50
2024-04-30T18:23:26.593Z,8.75
2024-04-30T18:25:55.124Z,9.10
2024-04-30T18:28:27.045Z,8.30
2024-04-30T18:30:58.173Z,14.60
2024-04-30T18:33:27.118Z,11.27
2024-04-30T18:35:58.356Z,11.30
2024-04-30T18:38:27.247Z,9.85
2024-04-30T18:41:00.081Z,9.23
2024-04-30T18:43:34.258Z,8.20
2024-04-30T18:46:05.801Z,7.20
2024-04-30T18:48:35.427Z,7.70
2024-04-30T18:51:06.732Z,8.88
2024-04-30T18:53:38.453Z,15.90
2024-04-30T18:56:10.406Z,10.15
2024-04-30T18:58:39.538Z,13.77
2024-04-30T19:01:11.459Z,9.98
2024-04-30T19:03:40.996Z,10.95
2024-04-30T19:06:14.490Z,10.70
2024-04-30T19:08:48.274Z,9.52
2024-04-30T19:11:20.568Z,9.52
2024-04-30T19:13:52.992Z,13.40
2024-04-30T19:16:24.875Z,13.80
2024-04-30T19:18:54.379Z,9.82
2024-04-30T19:21:28.675Z,12.60
2024-04-30T19:23:57.646Z,10.60
2024-04-30T19:26:28.996Z,9.15
2024-04-30T19:29:09.818Z,7.60
2024-04-30T19:32:11.525Z,7.28
2024-04-30T19:34:44.477Z,7.32
2024-04-30T19:37:13.670Z,7.85
2024-04-30T19:39:46.439Z,7.45
2024-04-30T19:42:15.294Z,8.43
2024-04-30T19:44:53.654Z,9.25
2024-04-30T19:47:22.426Z,9.63
2024-04-30T19:50:41.679Z,10.55
2024-04-30T19:53:14.584Z,12.25
2024-04-30T19:55:47.883Z,10.52
2024-04-30T19:58:17.306Z,14.05
2024-04-30T20:00:50.697Z,12.52
2024-04-30T20:03:19.811Z,10.65
2024-04-30T20:05:52.085Z,11.23
2024-04-30T20:08:20.911Z,8.80
2024-04-30T20:10:53.488Z,12.88
2024-04-30T20:13:24.579Z,14.68
2024-04-30T20:15:56.306Z,11.50
2024-04-30T20:18:25.136Z,15.77
2024-04-30T20:20:56.805Z,14.30
2024-04-30T20:23:28.130Z,9.93
2024-04-30T20:26:00.177Z,10.75
2024-04-30T20:28:28.795Z,10.40
2024-04-30T20:31:02.794Z,9.55
2024-04-30T20:33:34.480Z,8.50
2024-04-30T20:36:03.684Z,9.10
2024-04-30T20:38:36.924Z,12.20
2024-04-30T20:41:13.417Z,12.70
2024-04-30T20:43:42.324Z,13.05
2024-04-30T20:46:14.392Z,10.40
2024-04-30T20:48:45.757Z,10.90
2024-04-30T20:51:18.932Z,9.35
2024-04-30T20:53:47.528Z,9.93
2024-04-30T20:56:19.179Z,8.77
2024-04-30T20:58:47.783Z,8.55
2024-04-30T21:01:20.525Z,8.40
2024-04-30T21:03:49.544Z,7.72
2024-04-30T21:06:21.627Z,7.55
2024-04-30T21:08:50.256Z,8.15
2024-04-30T21:11:22.526Z,7.78
2024-04-30T21:13:52.283Z,8.82
2024-04-30T21:16:25.247Z,7.45
2024-04-30T21:18:54.222Z,8.57
2024-04-30T21:21:26.881Z,8.38
2024-04-30T21:23:55.483Z,7.57
2024-04-30T21:26:27.678Z,7.35
2024-04-30T21:28:56.172Z,8.77
2024-04-30T21:31:28.250Z,7.63
2024-04-30T21:33:56.892Z,7.47
2024-04-30T21:36:29.319Z,10.10
2024-04-30T21:38:57.929Z,7.95
2024-04-30T21:41:30.270Z,7.88
2024-04-30T21:43:58.800Z,8.20
2024-04-30T21:46:30.509Z,9.30
2024-04-30T21:49:01.994Z,10.25
2024-04-30T21:51:33.782Z,7.68
2024-04-30T21:54:02.423Z,8.07
2024-04-30T21:56:34.094Z,7.50
2024-04-30T21:59:03.185Z,6.88
2024-04-30T22:01:36.550Z,7.80
2024-04-30T22:04:05.193Z,7.05
2024-04-30T22:09:05.268Z,7.78
2024-04-30T22:11:37.988Z,6.72
2024-04-30T22:14:06.767Z,7.60
2024-04-30T22:16:39.007Z,7.00
2024-04-30T22:19:07.764Z,7.78
2024-04-30T22:21:39.884Z,7.35
2024-04-30T22:24:08.661Z,6.85
2024-04-30T22:26:40.362Z,7.63
2024-04-30T22:29:08.787Z,7.97
2024-04-30T22:34:09.150Z,8.27
2024-04-30T22:36:41.683Z,9.30
2024-04-30T22:39:11.090Z,8.80
2024-04-30T22:41:43.209Z,8.55
2024-04-30T22:44:14.303Z,8.40
2024-04-30T22:46:43.887Z,7.75
2024-04-30T22:51:44.802Z,7.72
2024-04-30T22:54:16.283Z,8.60
2024-04-30T22:56:46.066Z,8.98
2024-04-30T22:59:17.423Z,8.93
2024-04-30T23:01:48.394Z,9.13
2024-04-30T23:04:21.872Z,10.60
2024-04-30T23:06:51.066Z,10.27
2024-04-30T23:09:22.781Z,9.38
2024-04-30T23:11:52.014Z,9.25
2024-04-30T23:14:23.209Z,10.35
2024-04-30T23:16:52.747Z,9.75
2024-04-30T23:19:23.914Z,8.82
2024-04-30T23:21:53.266Z,9.43
2024-04-30T23:24:24.564Z,8.75
2024-04-30T23:26:53.937Z,8.10
2024-04-30T23:29:27.725Z,7.38
2024-04-30T23:31:57.348Z,6.88
2024-04-30T23:37:00.312Z,7.45
2024-04-30T23:39:31.421Z,7.10
2024-04-30T23:42:03.282Z,8.45
2024-04-30T23:44:34.680Z,7.90
2024-04-30T23:47:05.150Z,9.43
2024-04-30T23:49:36.412Z,9.98
2024-04-30T23:52:07.432Z,10.75
2024-04-30T23:54:39.053Z,12.73
2024-04-30T23:57:08.038Z,11.18
2024-04-30T23:59:42.132Z,10.43
